Relevés horaires Beauvechain (Belgique)


Relevés horaires à Beauvechain - Samedi 21 Juill. 2018
Heure UTC1 Température [°C] Vent [km/h] Hum. [%] Pres.4 [hPa] Visi. [Km] Nébu. [octa] Préc.5 [mm] Cond.
2m. Res. Ros. Dir.2 Vit. Moy. Raf.3
23:00 15.8 15.8 9.6 ONO 3.7 -- 7.4 67 1015(0.8/3h) 20 -- -- --
22:00 18.0 18.0 9.8 NO 3.7 -- 5.6 59 1014.6(1.1/3h) 20 -- -- --
21:00 19.5 19.5 10.3 NO 3.7 -- 13.0 55 1014.3(1.5/3h) 20 -- -- --
20:00 20.7 20.7 10.3 NO 5.6 -- 11.1 51 1013.8(1.3/3h) 20 -- -- --
19:00 23.1 23.1 10.8 NO 7.4 -- 13.0 46 1013.2(0.5/3h) 20 -- -- --
18:00 24.3 24.3 10.5 NO 7.4 -- 13.0 42 1012.6(0.2/3h) 18 5/8 -- --
17:00 24.3 24.3 10.4 NO 5.6 -- 11.1 42 1012.2(0.1/3h) 18 7/8 -- --
16:00 24.2 24.2 10.5 NO 9.3 -- 13.0 42 1012.6(0.3/3h) 18 7/8 -- --
15:00 25.1 25.1 10.7 NO 7.4 -- 13.0 40 1012.2(0.1/3h) 18 7/8 -- --
14:00 25.2 25.2 10.7 NNO 7.4 -- 13.0 40 1012.1(0.0/3h) 18 5/8 -- --
13:00 25.4 25.4 11.2 ONO 5.6 -- 11.1 41 1012.1(0.0/3h) 18 5/8 -- --
12:00 24.9 24.9 11.3 NO 5.6 -- 11.1 43 1012.2(0.1/3h) 18 4/8 -- --
11:00 25.3 25.3 12.9 NNO 5.6 -- 11.1 46 1012.1(0.0/3h) 18 3/8 -- --
10:00 23.4 23.4 13.8 NNO 3.7 -- 9.3 55 1012.2(0.0/3h) 18 1/8 -- --
09:00 21.5 21.5 14.4 ONO 3.7 -- 7.4 64 1012.2(0.2/3h) 12 3/8 -- --
08:00 19.3 19.3 14.7 ONO 3.7 -- 5.6 75 1012.3(0.6/3h) 16 -- -- --
07:00 18.0 18.0 14.5 NNO 1.9 -- 3.7 80 1012.5(0.9/3h) 11 -- -- --
06:00 17.0 17.0 13.5 NNO 1.9 -- 3.7 80 1012.2(0.4/3h) 18 -- -- --
05:00 16.2 16.2 12.6 NNO 1.9 -- 3.7 79 1011.8(0.2/3h) 20 -- -- --
04:00 16.5 16.5 12.4 NNO 1.9 -- 3.7 77 1011.6(-0.5/3h) 20 -- -- --
03:00 16.3 16.3 11.7 NNO 1.9 -- 3.7 74 1011.7(-0.7/3h) 20 -- -- --
02:00 17.7 17.7 11.6 NNO 1.9 -- 1.9 67 1011.6(-0.6/3h) 20 -- -- --
01:00 18.2 18.2 11.4 NNO 1.9 -- 1.9 64 1012.1(-0.1/3h) 20 -- -- --
00:00 18.0 18.0 10.9 NNO 1.9 -- 9.3 63 1012.3(-0.1/3h) 20 -- -- --

1 Coordinated Universal Time. Actuellement il est 12:00 locale et 11:00 UTC.

2 Le vent souffle depuis la direction indiquée vers la direction oposée.

3 Les rafales max. sont disponible 40 min après l'heure du relevé.

4 Pour les stations d'altitude (plus de 600m) le géopotentiel du niveau le plus proche de la pression obligatoire est indiqué.

5 Les stations disposant d'un diffuseur peuvent indiquer "trace". Cela signifie que des précipitations ont touchés le sol mais que la quantité est inférieure à 0.1 mm.

Récapitulatif de la journée
Température [°C] Vent [km/h] Ensoleillement4 [h] Precipitations totale5 [mm] Pression [Hpa]
Min1 Max.2 Moy.3 Max. Min Max.
16.1 27.3 0 13.0 0 h 0 min 0 1011.6 1015.0

1 Température minimale relevée entre 18:00 UTC la veille et 18:00 UTC le jour donné.

2 Température maximale relevée entre 06:00 UTC le jour donné et 06:00 UTC le lendemain.

3 Vent moyen de la journée basé sur les relevés horaires.

4 Ensoleillement en heures relevé entre 06:00 UTC la veille et 06:00 UTC le jour donné.

5 Précipitations totales tombées entre 06:00 UTC la jour donné et 06:00 UTC le lendemain.

Graphiques horaires